sensor_id;sensor_type;location;lat;lon;timestamp;temperature;humidity
75893;DHT22;64572;50.950;3.676;2023-02-28T00:00:12;2.30;92.10
75893;DHT22;64572;50.950;3.676;2023-02-28T00:02:39;2.40;92.20
75893;DHT22;64572;50.950;3.676;2023-02-28T00:05:06;2.40;91.80
75893;DHT22;64572;50.950;3.676;2023-02-28T00:07:32;2.40;92.20
75893;DHT22;64572;50.950;3.676;2023-02-28T00:09:58;2.30;92.00
75893;DHT22;64572;50.950;3.676;2023-02-28T00:12:24;2.30;91.70
75893;DHT22;64572;50.950;3.676;2023-02-28T00:14:50;2.30;91.90
75893;DHT22;64572;50.950;3.676;2023-02-28T00:17:16;2.20;92.10
75893;DHT22;64572;50.950;3.676;2023-02-28T00:19:50;2.10;92.30
75893;DHT22;64572;50.950;3.676;2023-02-28T00:22:18;2.10;92.20
75893;DHT22;64572;50.950;3.676;2023-02-28T00:24:45;2.00;92.60
75893;DHT22;64572;50.950;3.676;2023-02-28T00:27:11;1.90;92.70
75893;DHT22;64572;50.950;3.676;2023-02-28T00:29:37;1.90;93.10
75893;DHT22;64572;50.950;3.676;2023-02-28T00:32:03;1.80;93.40
75893;DHT22;64572;50.950;3.676;2023-02-28T00:34:29;1.70;93.80
75893;DHT22;64572;50.950;3.676;2023-02-28T00:36:55;1.70;93.50
75893;DHT22;64572;50.950;3.676;2023-02-28T00:39:21;1.70;93.90
75893;DHT22;64572;50.950;3.676;2023-02-28T00:41:46;1.70;93.40
75893;DHT22;64572;50.950;3.676;2023-02-28T00:44:12;1.70;93.30
75893;DHT22;64572;50.950;3.676;2023-02-28T00:46:38;1.70;93.30
75893;DHT22;64572;50.950;3.676;2023-02-28T00:49:04;1.70;93.40
75893;DHT22;64572;50.950;3.676;2023-02-28T00:51:29;1.70;93.20
75893;DHT22;64572;50.950;3.676;2023-02-28T00:53:55;1.80;93.60
75893;DHT22;64572;50.950;3.676;2023-02-28T00:56:20;1.70;93.60
75893;DHT22;64572;50.950;3.676;2023-02-28T00:58:46;1.70;93.80
75893;DHT22;64572;50.950;3.676;2023-02-28T01:01:12;1.60;93.90
75893;DHT22;64572;50.950;3.676;2023-02-28T01:03:37;1.50;94.00
75893;DHT22;64572;50.950;3.676;2023-02-28T01:06:04;1.60;93.60
75893;DHT22;64572;50.950;3.676;2023-02-28T01:08:30;1.70;93.80
75893;DHT22;64572;50.950;3.676;2023-02-28T01:10:55;1.70;93.40
75893;DHT22;64572;50.950;3.676;2023-02-28T01:13:21;1.60;94.00
75893;DHT22;64572;50.950;3.676;2023-02-28T01:15:55;1.60;94.20
75893;DHT22;64572;50.950;3.676;2023-02-28T01:18:21;1.60;94.00
75893;DHT22;64572;50.950;3.676;2023-02-28T01:20:48;1.60;94.60
75893;DHT22;64572;50.950;3.676;2023-02-28T01:23:14;1.60;94.30
75893;DHT22;64572;50.950;3.676;2023-02-28T01:25:39;1.50;94.40
75893;DHT22;64572;50.950;3.676;2023-02-28T01:28:06;1.40;95.00
75893;DHT22;64572;50.950;3.676;2023-02-28T01:30:32;1.50;94.30
75893;DHT22;64572;50.950;3.676;2023-02-28T01:32:58;1.50;94.30
75893;DHT22;64572;50.950;3.676;2023-02-28T01:35:23;1.40;94.60
75893;DHT22;64572;50.950;3.676;2023-02-28T01:37:49;1.50;94.80
75893;DHT22;64572;50.950;3.676;2023-02-28T01:40:15;1.50;94.30
75893;DHT22;64572;50.950;3.676;2023-02-28T01:42:41;1.50;94.50
75893;DHT22;64572;50.950;3.676;2023-02-28T01:45:26;1.50;94.20
75893;DHT22;64572;50.950;3.676;2023-02-28T01:47:55;1.40;94.40
75893;DHT22;64572;50.950;3.676;2023-02-28T01:50:28;1.40;94.30
75893;DHT22;64572;50.950;3.676;2023-02-28T01:52:57;1.40;94.50
75893;DHT22;64572;50.950;3.676;2023-02-28T01:55:26;1.30;94.70
75893;DHT22;64572;50.950;3.676;2023-02-28T01:57:56;1.30;95.00
75893;DHT22;64572;50.950;3.676;2023-02-28T02:00:23;1.30;95.20
75893;DHT22;64572;50.950;3.676;2023-02-28T02:02:55;1.20;95.30
75893;DHT22;64572;50.950;3.676;2023-02-28T02:05:24;1.20;95.00
75893;DHT22;64572;50.950;3.676;2023-02-28T02:07:54;1.10;95.40
75893;DHT22;64572;50.950;3.676;2023-02-28T02:10:21;1.10;95.70
75893;DHT22;64572;50.950;3.676;2023-02-28T02:24:24;1.10;95.40
75893;DHT22;64572;50.950;3.676;2023-02-28T02:41:17;1.00;96.30
75893;DHT22;64572;50.950;3.676;2023-02-28T02:46:35;0.90;95.60
75893;DHT22;64572;50.950;3.676;2023-02-28T02:49:05;0.80;95.30
75893;DHT22;64572;50.950;3.676;2023-02-28T02:51:32;0.80;95.40
75893;DHT22;64572;50.950;3.676;2023-02-28T02:54:20;0.90;96.00
75893;DHT22;64572;50.950;3.676;2023-02-28T02:56:49;0.90;95.90
75893;DHT22;64572;50.950;3.676;2023-02-28T02:59:18;0.80;95.60
75893;DHT22;64572;50.950;3.676;2023-02-28T03:01:53;0.80;95.80
75893;DHT22;64572;50.950;3.676;2023-02-28T03:04:22;0.70;95.80
75893;DHT22;64572;50.950;3.676;2023-02-28T03:06:50;0.70;95.90
75893;DHT22;64572;50.950;3.676;2023-02-28T03:09:20;0.60;96.00
75893;DHT22;64572;50.950;3.676;2023-02-28T03:11:47;0.60;96.00
75893;DHT22;64572;50.950;3.676;2023-02-28T03:15:26;0.60;96.70
75893;DHT22;64572;50.950;3.676;2023-02-28T03:23:19;0.60;96.20
75893;DHT22;64572;50.950;3.676;2023-02-28T03:26:12;0.70;96.40
75893;DHT22;64572;50.950;3.676;2023-02-28T03:36:48;0.60;96.70
75893;DHT22;64572;50.950;3.676;2023-02-28T03:39:19;0.50;96.90
75893;DHT22;64572;50.950;3.676;2023-02-28T03:41:57;0.50;96.40
75893;DHT22;64572;50.950;3.676;2023-02-28T03:44:38;0.50;96.60
75893;DHT22;64572;50.950;3.676;2023-02-28T03:47:32;0.50;97.00
75893;DHT22;64572;50.950;3.676;2023-02-28T03:50:05;0.40;96.90
75893;DHT22;64572;50.950;3.676;2023-02-28T03:52:36;0.40;96.60
75893;DHT22;64572;50.950;3.676;2023-02-28T03:55:09;0.30;96.60
75893;DHT22;64572;50.950;3.676;2023-02-28T04:00:35;0.30;96.80
75893;DHT22;64572;50.950;3.676;2023-02-28T04:03:02;0.30;97.10
75893;DHT22;64572;50.950;3.676;2023-02-28T04:05:29;0.20;97.10
75893;DHT22;64572;50.950;3.676;2023-02-28T04:08:07;0.20;97.20
75893;DHT22;64572;50.950;3.676;2023-02-28T04:10:32;0.20;97.50
75893;DHT22;64572;50.950;3.676;2023-02-28T04:12:58;0.20;97.50
75893;DHT22;64572;50.950;3.676;2023-02-28T04:15:24;0.10;97.90
75893;DHT22;64572;50.950;3.676;2023-02-28T04:17:50;0.20;98.00
75893;DHT22;64572;50.950;3.676;2023-02-28T04:20:16;0.30;97.90
75893;DHT22;64572;50.950;3.676;2023-02-28T04:22:41;0.40;97.90
75893;DHT22;64572;50.950;3.676;2023-02-28T04:25:07;0.60;98.20
75893;DHT22;64572;50.950;3.676;2023-02-28T04:27:33;0.60;98.20
75893;DHT22;64572;50.950;3.676;2023-02-28T04:29:59;0.60;98.10
75893;DHT22;64572;50.950;3.676;2023-02-28T04:32:25;0.70;98.10
75893;DHT22;64572;50.950;3.676;2023-02-28T04:34:51;0.70;98.20
75893;DHT22;64572;50.950;3.676;2023-02-28T04:37:16;0.80;98.30
75893;DHT22;64572;50.950;3.676;2023-02-28T04:39:42;0.80;98.30
75893;DHT22;64572;50.950;3.676;2023-02-28T04:42:08;0.90;98.70
75893;DHT22;64572;50.950;3.676;2023-02-28T04:44:34;1.00;98.50
75893;DHT22;64572;50.950;3.676;2023-02-28T04:47:00;1.20;98.30
75893;DHT22;64572;50.950;3.676;2023-02-28T04:49:25;1.30;98.30
75893;DHT22;64572;50.950;3.676;2023-02-28T04:51:51;1.50;98.10
75893;DHT22;64572;50.950;3.676;2023-02-28T04:54:18;1.50;97.90
75893;DHT22;64572;50.950;3.676;2023-02-28T04:56:44;1.70;97.70
75893;DHT22;64572;50.950;3.676;2023-02-28T04:59:09;1.80;97.50
75893;DHT22;64572;50.950;3.676;2023-02-28T05:01:35;1.90;97.30
75893;DHT22;64572;50.950;3.676;2023-02-28T05:04:03;1.80;97.50
75893;DHT22;64572;50.950;3.676;2023-02-28T05:06:31;2.00;97.70
75893;DHT22;64572;50.950;3.676;2023-02-28T05:08:57;2.00;97.20
75893;DHT22;64572;50.950;3.676;2023-02-28T05:11:30;2.00;97.40
75893;DHT22;64572;50.950;3.676;2023-02-28T05:14:01;2.00;97.40
75893;DHT22;64572;50.950;3.676;2023-02-28T05:16:27;2.00;97.50
75893;DHT22;64572;50.950;3.676;2023-02-28T05:18:53;2.10;97.50
75893;DHT22;64572;50.950;3.676;2023-02-28T05:21:29;2.20;97.40
75893;DHT22;64572;50.950;3.676;2023-02-28T05:23:57;2.30;97.30
75893;DHT22;64572;50.950;3.676;2023-02-28T05:26:23;2.40;97.20
75893;DHT22;64572;50.950;3.676;2023-02-28T05:28:49;2.50;97.20
75893;DHT22;64572;50.950;3.676;2023-02-28T05:31:15;2.60;97.00
75893;DHT22;64572;50.950;3.676;2023-02-28T05:33:41;2.50;97.10
75893;DHT22;64572;50.950;3.676;2023-02-28T05:36:07;2.50;97.10
75893;DHT22;64572;50.950;3.676;2023-02-28T05:38:32;2.50;97.20
75893;DHT22;64572;50.950;3.676;2023-02-28T05:40:58;2.40;97.30
75893;DHT22;64572;50.950;3.676;2023-02-28T05:43:24;2.50;97.30
75893;DHT22;64572;50.950;3.676;2023-02-28T05:45:49;2.50;97.20
75893;DHT22;64572;50.950;3.676;2023-02-28T05:48:15;2.60;97.30
75893;DHT22;64572;50.950;3.676;2023-02-28T05:50:42;2.60;97.20
75893;DHT22;64572;50.950;3.676;2023-02-28T05:53:10;2.50;97.10
75893;DHT22;64572;50.950;3.676;2023-02-28T05:55:35;2.50;97.40
75893;DHT22;64572;50.950;3.676;2023-02-28T05:58:02;2.60;97.40
75893;DHT22;64572;50.950;3.676;2023-02-28T06:00:28;2.70;97.20
75893;DHT22;64572;50.950;3.676;2023-02-28T06:02:53;2.70;97.30
75893;DHT22;64572;50.950;3.676;2023-02-28T06:05:22;2.60;97.30
75893;DHT22;64572;50.950;3.676;2023-02-28T06:07:47;2.60;97.30
75893;DHT22;64572;50.950;3.676;2023-02-28T06:10:14;2.70;97.30
75893;DHT22;64572;50.950;3.676;2023-02-28T06:12:40;2.70;97.20
75893;DHT22;64572;50.950;3.676;2023-02-28T06:15:10;2.80;97.00
75893;DHT22;64572;50.950;3.676;2023-02-28T06:17:37;2.80;97.00
75893;DHT22;64572;50.950;3.676;2023-02-28T06:20:03;2.80;96.70
75893;DHT22;64572;50.950;3.676;2023-02-28T06:22:29;2.80;96.80
75893;DHT22;64572;50.950;3.676;2023-02-28T06:24:55;2.80;96.90
75893;DHT22;64572;50.950;3.676;2023-02-28T06:27:22;2.70;97.30
75893;DHT22;64572;50.950;3.676;2023-02-28T06:29:48;2.70;97.30
75893;DHT22;64572;50.950;3.676;2023-02-28T06:32:13;2.80;97.20
75893;DHT22;64572;50.950;3.676;2023-02-28T06:34:39;2.80;97.30
75893;DHT22;64572;50.950;3.676;2023-02-28T06:37:05;2.70;97.50
75893;DHT22;64572;50.950;3.676;2023-02-28T06:39:30;2.70;97.50
75893;DHT22;64572;50.950;3.676;2023-02-28T06:41:56;2.80;97.50
75893;DHT22;64572;50.950;3.676;2023-02-28T06:44:23;2.80;97.70
75893;DHT22;64572;50.950;3.676;2023-02-28T06:46:49;2.80;97.60
75893;DHT22;64572;50.950;3.676;2023-02-28T06:49:15;2.80;97.20
75893;DHT22;64572;50.950;3.676;2023-02-28T06:51:43;2.90;97.30
75893;DHT22;64572;50.950;3.676;2023-02-28T06:54:11;2.80;97.00
75893;DHT22;64572;50.950;3.676;2023-02-28T06:56:37;2.80;97.40
75893;DHT22;64572;50.950;3.676;2023-02-28T06:59:03;2.70;97.60
75893;DHT22;64572;50.950;3.676;2023-02-28T07:01:29;2.80;97.50
75893;DHT22;64572;50.950;3.676;2023-02-28T07:03:57;2.90;97.60
75893;DHT22;64572;50.950;3.676;2023-02-28T07:06:22;2.90;97.20
75893;DHT22;64572;50.950;3.676;2023-02-28T07:08:49;3.00;97.30
75893;DHT22;64572;50.950;3.676;2023-02-28T07:11:15;3.00;97.20
75893;DHT22;64572;50.950;3.676;2023-02-28T07:13:41;3.00;97.10
75893;DHT22;64572;50.950;3.676;2023-02-28T07:16:09;3.00;97.20
75893;DHT22;64572;50.950;3.676;2023-02-28T07:18:36;3.00;96.90
75893;DHT22;64572;50.950;3.676;2023-02-28T07:21:03;3.20;96.70
75893;DHT22;64572;50.950;3.676;2023-02-28T07:23:29;3.10;96.80
75893;DHT22;64572;50.950;3.676;2023-02-28T07:25:54;3.10;96.90
75893;DHT22;64572;50.950;3.676;2023-02-28T07:28:20;3.20;96.50
75893;DHT22;64572;50.950;3.676;2023-02-28T07:30:45;3.30;96.90
75893;DHT22;64572;50.950;3.676;2023-02-28T07:33:11;3.30;96.40
75893;DHT22;64572;50.950;3.676;2023-02-28T07:35:37;3.40;96.30
75893;DHT22;64572;50.950;3.676;2023-02-28T07:38:03;3.40;96.20
75893;DHT22;64572;50.950;3.676;2023-02-28T07:40:29;3.40;95.90
75893;DHT22;64572;50.950;3.676;2023-02-28T07:42:55;3.50;96.30
75893;DHT22;64572;50.950;3.676;2023-02-28T07:45:21;3.50;95.80
75893;DHT22;64572;50.950;3.676;2023-02-28T07:47:46;3.60;95.70
75893;DHT22;64572;50.950;3.676;2023-02-28T07:50:13;3.60;95.40
75893;DHT22;64572;50.950;3.676;2023-02-28T07:52:40;3.60;95.90
75893;DHT22;64572;50.950;3.676;2023-02-28T07:55:07;3.70;95.30
75893;DHT22;64572;50.950;3.676;2023-02-28T07:57:33;3.80;95.60
75893;DHT22;64572;50.950;3.676;2023-02-28T07:59:59;3.70;95.80
75893;DHT22;64572;50.950;3.676;2023-02-28T08:02:25;3.80;95.70
75893;DHT22;64572;50.950;3.676;2023-02-28T08:04:50;3.80;95.10
75893;DHT22;64572;50.950;3.676;2023-02-28T08:07:17;3.80;95.30
75893;DHT22;64572;50.950;3.676;2023-02-28T08:09:43;3.90;94.90
75893;DHT22;64572;50.950;3.676;2023-02-28T08:12:10;3.90;94.80
75893;DHT22;64572;50.950;3.676;2023-02-28T08:14:36;4.10;95.00
75893;DHT22;64572;50.950;3.676;2023-02-28T08:17:02;4.30;94.50
75893;DHT22;64572;50.950;3.676;2023-02-28T08:19:28;4.40;94.10
75893;DHT22;64572;50.950;3.676;2023-02-28T08:21:55;4.50;93.80
75893;DHT22;64572;50.950;3.676;2023-02-28T08:24:20;4.70;93.40
75893;DHT22;64572;50.950;3.676;2023-02-28T08:26:46;4.90;92.50
75893;DHT22;64572;50.950;3.676;2023-02-28T08:29:11;5.00;92.50
75893;DHT22;64572;50.950;3.676;2023-02-28T08:31:37;5.10;91.90
75893;DHT22;64572;50.950;3.676;2023-02-28T08:34:10;5.30;91.70
75893;DHT22;64572;50.950;3.676;2023-02-28T08:36:37;5.20;92.00
75893;DHT22;64572;50.950;3.676;2023-02-28T08:39:03;5.20;91.70
75893;DHT22;64572;50.950;3.676;2023-02-28T08:41:29;5.20;91.60
75893;DHT22;64572;50.950;3.676;2023-02-28T08:43:55;5.00;91.80
75893;DHT22;64572;50.950;3.676;2023-02-28T08:46:20;5.00;91.50
75893;DHT22;64572;50.950;3.676;2023-02-28T08:48:46;5.00;91.80
75893;DHT22;64572;50.950;3.676;2023-02-28T08:51:16;5.20;91.20
75893;DHT22;64572;50.950;3.676;2023-02-28T08:53:44;5.40;91.30
75893;DHT22;64572;50.950;3.676;2023-02-28T08:56:12;5.70;90.50
75893;DHT22;64572;50.950;3.676;2023-02-28T08:58:38;5.60;90.50
75893;DHT22;64572;50.950;3.676;2023-02-28T09:03:39;5.60;90.60
75893;DHT22;64572;50.950;3.676;2023-02-28T09:06:07;5.60;90.00
75893;DHT22;64572;50.950;3.676;2023-02-28T09:08:33;5.60;89.00
75893;DHT22;64572;50.950;3.676;2023-02-28T09:10:59;5.40;89.90
75893;DHT22;64572;50.950;3.676;2023-02-28T09:13:26;5.40;90.00
75893;DHT22;64572;50.950;3.676;2023-02-28T09:15:52;5.30;85.80
75893;DHT22;64572;50.950;3.676;2023-02-28T09:18:18;5.10;87.30
75893;DHT22;64572;50.950;3.676;2023-02-28T09:20:44;4.70;90.20
75893;DHT22;64572;50.950;3.676;2023-02-28T09:23:12;4.80;90.20
75893;DHT22;64572;50.950;3.676;2023-02-28T09:25:40;4.80;90.70
75893;DHT22;64572;50.950;3.676;2023-02-28T09:28:10;4.70;90.30
75893;DHT22;64572;50.950;3.676;2023-02-28T09:30:37;4.80;89.70
75893;DHT22;64572;50.950;3.676;2023-02-28T09:33:03;4.90;88.10
75893;DHT22;64572;50.950;3.676;2023-02-28T09:35:29;5.00;87.40
75893;DHT22;64572;50.950;3.676;2023-02-28T09:37:56;5.10;87.00
75893;DHT22;64572;50.950;3.676;2023-02-28T09:40:24;5.10;85.30
75893;DHT22;64572;50.950;3.676;2023-02-28T09:42:52;5.30;85.40
75893;DHT22;64572;50.950;3.676;2023-02-28T09:45:31;5.40;85.30
75893;DHT22;64572;50.950;3.676;2023-02-28T09:48:16;5.20;83.50
75893;DHT22;64572;50.950;3.676;2023-02-28T09:50:48;5.30;83.00
75893;DHT22;64572;50.950;3.676;2023-02-28T09:53:30;5.50;82.90
75893;DHT22;64572;50.950;3.676;2023-02-28T09:56:24;5.90;82.10
75893;DHT22;64572;50.950;3.676;2023-02-28T09:59:10;5.90;79.20
75893;DHT22;64572;50.950;3.676;2023-02-28T10:01:39;5.90;79.30
75893;DHT22;64572;50.950;3.676;2023-02-28T10:06:49;5.80;79.20
75893;DHT22;64572;50.950;3.676;2023-02-28T10:09:27;5.70;80.10
75893;DHT22;64572;50.950;3.676;2023-02-28T10:12:00;5.80;78.00
75893;DHT22;64572;50.950;3.676;2023-02-28T10:14:30;6.00;76.50
75893;DHT22;64572;50.950;3.676;2023-02-28T10:17:15;6.10;78.00
75893;DHT22;64572;50.950;3.676;2023-02-28T10:22:50;6.20;72.50
75893;DHT22;64572;50.950;3.676;2023-02-28T10:25:23;6.50;73.70
75893;DHT22;64572;50.950;3.676;2023-02-28T10:27:50;6.70;71.80
75893;DHT22;64572;50.950;3.676;2023-02-28T10:30:18;6.80;70.20
75893;DHT22;64572;50.950;3.676;2023-02-28T10:32:50;7.00;68.50
75893;DHT22;64572;50.950;3.676;2023-02-28T10:35:22;7.20;65.60
75893;DHT22;64572;50.950;3.676;2023-02-28T10:37:51;6.90;64.90
75893;DHT22;64572;50.950;3.676;2023-02-28T10:42:57;6.70;63.70
75893;DHT22;64572;50.950;3.676;2023-02-28T10:45:24;6.70;62.10
75893;DHT22;64572;50.950;3.676;2023-02-28T10:50:32;7.30;61.40
75893;DHT22;64572;50.950;3.676;2023-02-28T10:58:49;10.80;51.50
75893;DHT22;64572;50.950;3.676;2023-02-28T11:01:23;11.70;49.60
75893;DHT22;64572;50.950;3.676;2023-02-28T11:03:50;12.50;49.60
75893;DHT22;64572;50.950;3.676;2023-02-28T11:06:31;12.00;45.70
75893;DHT22;64572;50.950;3.676;2023-02-28T11:09:27;12.90;45.70
75893;DHT22;64572;50.950;3.676;2023-02-28T11:11:54;11.80;46.20
75893;DHT22;64572;50.950;3.676;2023-02-28T11:14:24;12.40;47.60
75893;DHT22;64572;50.950;3.676;2023-02-28T11:16:51;12.10;46.00
75893;DHT22;64572;50.950;3.676;2023-02-28T11:19:22;12.30;48.00
75893;DHT22;64572;50.950;3.676;2023-02-28T11:21:55;12.70;44.80
75893;DHT22;64572;50.950;3.676;2023-02-28T11:24:26;12.40;44.80
75893;DHT22;64572;50.950;3.676;2023-02-28T11:26:53;12.60;44.30
75893;DHT22;64572;50.950;3.676;2023-02-28T11:29:25;11.70;45.90
75893;DHT22;64572;50.950;3.676;2023-02-28T11:32:13;11.30;46.00
75893;DHT22;64572;50.950;3.676;2023-02-28T11:34:42;11.40;46.60
75893;DHT22;64572;50.950;3.676;2023-02-28T11:37:18;12.40;43.70
75893;DHT22;64572;50.950;3.676;2023-02-28T11:39:45;13.00;43.40
75893;DHT22;64572;50.950;3.676;2023-02-28T11:42:53;13.90;42.00
75893;DHT22;64572;50.950;3.676;2023-02-28T11:52:54;17.70;34.80
75893;DHT22;64572;50.950;3.676;2023-02-28T11:55:35;19.80;33.60
75893;DHT22;64572;50.950;3.676;2023-02-28T12:06:14;16.70;33.20
75893;DHT22;64572;50.950;3.676;2023-02-28T12:12:00;16.40;33.60
75893;DHT22;64572;50.950;3.676;2023-02-28T12:17:24;15.90;34.00
75893;DHT22;64572;50.950;3.676;2023-02-28T12:19:58;16.00;32.70
75893;DHT22;64572;50.950;3.676;2023-02-28T12:27:37;17.10;31.00
75893;DHT22;64572;50.950;3.676;2023-02-28T12:30:25;19.30;31.40
75893;DHT22;64572;50.950;3.676;2023-02-28T12:33:12;18.80;30.00
75893;DHT22;64572;50.950;3.676;2023-02-28T12:35:56;17.90;29.60
75893;DHT22;64572;50.950;3.676;2023-02-28T12:38:29;18.00;29.90
75893;DHT22;64572;50.950;3.676;2023-02-28T12:41:02;17.30;31.80
75893;DHT22;64572;50.950;3.676;2023-02-28T12:43:35;17.80;32.00
75893;DHT22;64572;50.950;3.676;2023-02-28T12:46:21;18.10;30.20
75893;DHT22;64572;50.950;3.676;2023-02-28T12:48:53;17.10;30.30
75893;DHT22;64572;50.950;3.676;2023-02-28T12:51:22;16.70;31.40
75893;DHT22;64572;50.950;3.676;2023-02-28T12:54:12;15.20;30.70
75893;DHT22;64572;50.950;3.676;2023-02-28T12:59:42;15.40;33.70
75893;DHT22;64572;50.950;3.676;2023-02-28T13:10:49;19.40;28.60
75893;DHT22;64572;50.950;3.676;2023-02-28T13:13:24;20.30;28.30
75893;DHT22;64572;50.950;3.676;2023-02-28T13:16:09;19.80;28.00
75893;DHT22;64572;50.950;3.676;2023-02-28T13:18:40;19.20;29.00
75893;DHT22;64572;50.950;3.676;2023-02-28T13:21:28;19.50;28.70
75893;DHT22;64572;50.950;3.676;2023-02-28T13:24:02;18.80;27.80
75893;DHT22;64572;50.950;3.676;2023-02-28T13:34:41;18.00;28.20
75893;DHT22;64572;50.950;3.676;2023-02-28T13:42:34;19.40;28.20
75893;DHT22;64572;50.950;3.676;2023-02-28T13:47:43;18.60;29.20
75893;DHT22;64572;50.950;3.676;2023-02-28T14:09:05;16.10;31.30
75893;DHT22;64572;50.950;3.676;2023-02-28T14:11:35;15.70;32.10
75893;DHT22;64572;50.950;3.676;2023-02-28T14:14:03;15.80;30.80
75893;DHT22;64572;50.950;3.676;2023-02-28T14:16:46;16.80;30.20
75893;DHT22;64572;50.950;3.676;2023-02-28T14:19:27;17.50;30.00
75893;DHT22;64572;50.950;3.676;2023-02-28T14:38:19;17.80;29.10
75893;DHT22;64572;50.950;3.676;2023-02-28T14:40:49;17.20;29.40
75893;DHT22;64572;50.950;3.676;2023-02-28T14:43:25;17.40;29.60
75893;DHT22;64572;50.950;3.676;2023-02-28T14:46:04;16.70;29.60
75893;DHT22;64572;50.950;3.676;2023-02-28T14:48:31;16.20;30.00
75893;DHT22;64572;50.950;3.676;2023-02-28T14:51:00;16.10;29.80
75893;DHT22;64572;50.950;3.676;2023-02-28T14:53:29;15.90;31.50
75893;DHT22;64572;50.950;3.676;2023-02-28T14:55:55;16.20;30.00
75893;DHT22;64572;50.950;3.676;2023-02-28T14:58:29;14.80;31.40
75893;DHT22;64572;50.950;3.676;2023-02-28T15:01:01;14.40;32.90
75893;DHT22;64572;50.950;3.676;2023-02-28T15:03:36;14.20;32.30
75893;DHT22;64572;50.950;3.676;2023-02-28T15:06:05;13.90;33.30
75893;DHT22;64572;50.950;3.676;2023-02-28T15:08:32;12.00;35.20
75893;DHT22;64572;50.950;3.676;2023-02-28T15:11:18;11.00;37.30
75893;DHT22;64572;50.950;3.676;2023-02-28T15:13:49;9.50;39.30
75893;DHT22;64572;50.950;3.676;2023-02-28T15:16:19;8.80;41.50
75893;DHT22;64572;50.950;3.676;2023-02-28T15:18:54;8.30;42.30
75893;DHT22;64572;50.950;3.676;2023-02-28T15:21:36;7.90;42.10
75893;DHT22;64572;50.950;3.676;2023-02-28T15:26:45;7.50;43.10
75893;DHT22;64572;50.950;3.676;2023-02-28T15:29:23;7.30;43.40
75893;DHT22;64572;50.950;3.676;2023-02-28T15:31:55;7.30;44.00
75893;DHT22;64572;50.950;3.676;2023-02-28T15:34:36;7.30;44.40
75893;DHT22;64572;50.950;3.676;2023-02-28T15:39:52;7.30;45.70
75893;DHT22;64572;50.950;3.676;2023-02-28T15:42:19;7.20;46.00
75893;DHT22;64572;50.950;3.676;2023-02-28T15:44:45;7.10;46.40
75893;DHT22;64572;50.950;3.676;2023-02-28T15:47:18;7.10;46.60
75893;DHT22;64572;50.950;3.676;2023-02-28T15:49:51;7.10;46.60
75893;DHT22;64572;50.950;3.676;2023-02-28T15:52:40;7.20;46.60
75893;DHT22;64572;50.950;3.676;2023-02-28T15:55:20;7.50;47.30
75893;DHT22;64572;50.950;3.676;2023-02-28T17:04:20;5.00;60.90
75893;DHT22;64572;50.950;3.676;2023-02-28T17:06:46;4.90;62.10
75893;DHT22;64572;50.950;3.676;2023-02-28T17:09:22;4.90;61.30
75893;DHT22;64572;50.950;3.676;2023-02-28T17:11:48;5.00;61.50
75893;DHT22;64572;50.950;3.676;2023-02-28T17:14:15;5.10;61.30
75893;DHT22;64572;50.950;3.676;2023-02-28T17:16:41;5.00;61.50
75893;DHT22;64572;50.950;3.676;2023-02-28T17:19:12;5.00;62.40
75893;DHT22;64572;50.950;3.676;2023-02-28T17:21:39;5.00;63.90
75893;DHT22;64572;50.950;3.676;2023-02-28T17:24:07;4.90;63.20
75893;DHT22;64572;50.950;3.676;2023-02-28T17:26:33;5.10;63.50
75893;DHT22;64572;50.950;3.676;2023-02-28T17:28:59;5.10;63.60
75893;DHT22;64572;50.950;3.676;2023-02-28T17:31:26;5.20;64.00
75893;DHT22;64572;50.950;3.676;2023-02-28T17:33:52;5.20;64.20
75893;DHT22;64572;50.950;3.676;2023-02-28T17:36:23;5.30;65.70
75893;DHT22;64572;50.950;3.676;2023-02-28T17:38:50;5.20;66.20
75893;DHT22;64572;50.950;3.676;2023-02-28T17:41:16;5.20;65.70
75893;DHT22;64572;50.950;3.676;2023-02-28T17:43:41;5.20;65.10
75893;DHT22;64572;50.950;3.676;2023-02-28T17:46:21;5.30;65.20
75893;DHT22;64572;50.950;3.676;2023-02-28T17:48:52;5.20;65.20
75893;DHT22;64572;50.950;3.676;2023-02-28T17:51:19;5.00;65.90
75893;DHT22;64572;50.950;3.676;2023-02-28T17:53:45;4.90;67.40
75893;DHT22;64572;50.950;3.676;2023-02-28T17:56:17;5.00;67.40
75893;DHT22;64572;50.950;3.676;2023-02-28T17:58:44;4.90;66.70
75893;DHT22;64572;50.950;3.676;2023-02-28T18:01:09;5.10;66.60
75893;DHT22;64572;50.950;3.676;2023-02-28T18:03:36;5.20;66.40
75893;DHT22;64572;50.950;3.676;2023-02-28T18:06:02;5.20;68.00
75893;DHT22;64572;50.950;3.676;2023-02-28T18:08:28;5.10;66.00
75893;DHT22;64572;50.950;3.676;2023-02-28T18:10:54;5.10;68.30
75893;DHT22;64572;50.950;3.676;2023-02-28T18:13:20;5.10;68.40
75893;DHT22;64572;50.950;3.676;2023-02-28T18:15:45;5.00;67.80
75893;DHT22;64572;50.950;3.676;2023-02-28T18:18:12;5.00;68.30
75893;DHT22;64572;50.950;3.676;2023-02-28T18:20:38;5.00;68.70
75893;DHT22;64572;50.950;3.676;2023-02-28T18:23:04;4.90;69.30
75893;DHT22;64572;50.950;3.676;2023-02-28T18:25:29;4.90;68.50
75893;DHT22;64572;50.950;3.676;2023-02-28T18:27:55;4.90;67.30
75893;DHT22;64572;50.950;3.676;2023-02-28T18:30:28;4.90;67.40
75893;DHT22;64572;50.950;3.676;2023-02-28T18:33:00;4.80;69.00
75893;DHT22;64572;50.950;3.676;2023-02-28T18:35:26;4.80;70.10
75893;DHT22;64572;50.950;3.676;2023-02-28T18:38:09;4.80;70.70
75893;DHT22;64572;50.950;3.676;2023-02-28T18:40:36;4.70;70.90
75893;DHT22;64572;50.950;3.676;2023-02-28T18:43:02;4.60;72.10
75893;DHT22;64572;50.950;3.676;2023-02-28T18:45:28;4.60;72.00
75893;DHT22;64572;50.950;3.676;2023-02-28T18:47:54;4.50;74.00
75893;DHT22;64572;50.950;3.676;2023-02-28T18:50:20;4.40;73.70
75893;DHT22;64572;50.950;3.676;2023-02-28T18:52:45;4.40;73.30
75893;DHT22;64572;50.950;3.676;2023-02-28T18:55:11;4.30;73.00
75893;DHT22;64572;50.950;3.676;2023-02-28T18:57:43;4.30;75.20
75893;DHT22;64572;50.950;3.676;2023-02-28T19:00:09;4.20;77.00
75893;DHT22;64572;50.950;3.676;2023-02-28T19:02:37;4.20;76.60
75893;DHT22;64572;50.950;3.676;2023-02-28T19:05:03;4.10;76.80
75893;DHT22;64572;50.950;3.676;2023-02-28T19:07:29;4.00;76.10
75893;DHT22;64572;50.950;3.676;2023-02-28T19:09:54;4.00;76.80
75893;DHT22;64572;50.950;3.676;2023-02-28T19:12:20;3.90;76.20
75893;DHT22;64572;50.950;3.676;2023-02-28T19:14:45;3.90;76.80
75893;DHT22;64572;50.950;3.676;2023-02-28T19:17:11;3.80;77.80
75893;DHT22;64572;50.950;3.676;2023-02-28T19:19:40;3.70;79.70
75893;DHT22;64572;50.950;3.676;2023-02-28T19:22:06;3.60;78.40
75893;DHT22;64572;50.950;3.676;2023-02-28T19:24:31;3.50;79.40
75893;DHT22;64572;50.950;3.676;2023-02-28T19:26:57;3.50;79.80
75893;DHT22;64572;50.950;3.676;2023-02-28T19:29:23;3.50;80.60
75893;DHT22;64572;50.950;3.676;2023-02-28T19:31:48;3.40;80.30
75893;DHT22;64572;50.950;3.676;2023-02-28T19:34:14;3.40;79.90
75893;DHT22;64572;50.950;3.676;2023-02-28T19:36:40;3.40;80.00
75893;DHT22;64572;50.950;3.676;2023-02-28T19:39:06;3.40;78.90
75893;DHT22;64572;50.950;3.676;2023-02-28T19:41:31;3.30;79.80